createdAt,value
2019-01-26T00:01:22.793Z,1.90
2019-01-26T00:04:10.621Z,1.90
2019-01-26T00:06:58.443Z,1.90
2019-01-26T00:10:05.650Z,1.90
2019-01-26T00:12:46.704Z,1.90
2019-01-26T00:15:27.913Z,1.90
2019-01-26T00:18:08.885Z,1.80
2019-01-26T00:20:49.624Z,1.90
2019-01-26T00:23:31.508Z,1.90
2019-01-26T00:26:13.253Z,1.80
2019-01-26T00:31:41.460Z,1.80
2019-01-26T00:34:23.709Z,1.80
2019-01-26T00:37:05.416Z,1.80
2019-01-26T00:39:46.271Z,1.80
2019-01-26T00:42:26.845Z,1.80
2019-01-26T00:45:09.350Z,1.80
2019-01-26T00:47:50.454Z,1.80
2019-01-26T00:50:32.869Z,1.80
2019-01-26T00:53:13.845Z,1.80
2019-01-26T00:55:55.024Z,1.80
2019-01-26T00:58:36.480Z,1.80
2019-01-26T01:01:16.799Z,1.80
2019-01-26T01:03:59.002Z,1.80
2019-01-26T01:06:40.617Z,1.70
2019-01-26T01:09:21.677Z,1.70
2019-01-26T01:12:04.398Z,1.70
2019-01-26T01:14:45.593Z,1.70
2019-01-26T01:17:26.224Z,1.70
2019-01-26T01:20:07.292Z,1.70
2019-01-26T01:22:35.735Z,1.70
2019-01-26T01:25:23.509Z,1.70
2019-01-26T01:28:03.903Z,1.70
2019-01-26T01:30:44.368Z,1.70
2019-01-26T01:33:25.374Z,1.70
2019-01-26T01:36:06.185Z,1.70
2019-01-26T01:38:47.452Z,1.80
2019-01-26T01:41:30.050Z,1.70
2019-01-26T01:44:11.951Z,1.70
2019-01-26T01:46:53.415Z,1.70
2019-01-26T01:49:34.630Z,1.70
2019-01-26T01:52:15.263Z,1.70
2019-01-26T01:54:43.751Z,1.70
2019-01-26T01:57:31.526Z,1.70
2019-01-26T02:08:53.436Z,1.70
2019-01-26T02:11:41.765Z,1.70
2019-01-26T02:14:22.188Z,1.70
2019-01-26T02:17:03.151Z,1.70
2019-01-26T02:19:43.609Z,1.70
2019-01-26T02:22:24.123Z,1.70
2019-01-26T02:25:06.043Z,1.70
2019-01-26T02:27:47.498Z,1.70
2019-01-26T02:33:36.644Z,1.70
2019-01-26T02:36:17.790Z,1.70
2019-01-26T02:39:00.184Z,1.70
2019-01-26T02:41:41.496Z,1.80
2019-01-26T02:44:23.310Z,1.70
2019-01-26T02:47:04.762Z,1.70
2019-01-26T02:49:47.434Z,1.70
2019-01-26T02:52:29.943Z,1.70
2019-01-26T02:55:10.544Z,1.70
2019-01-26T02:57:51.392Z,1.70
2019-01-26T03:03:18.277Z,1.70
2019-01-26T03:05:58.825Z,1.70
2019-01-26T03:08:39.843Z,1.70
2019-01-26T03:11:22.557Z,1.70
2019-01-26T03:14:02.209Z,1.70
2019-01-26T03:16:43.201Z,1.70
2019-01-26T03:19:23.814Z,1.70
2019-01-26T03:22:04.509Z,1.70
2019-01-26T03:24:45.361Z,1.70
2019-01-26T03:27:27.803Z,1.70
2019-01-26T03:30:09.889Z,1.70
2019-01-26T03:32:50.655Z,1.70
2019-01-26T03:35:32.473Z,1.70
2019-01-26T03:38:00.910Z,1.70
2019-01-26T03:40:29.329Z,1.70
2019-01-26T03:43:17.185Z,1.70
2019-01-26T03:46:24.586Z,1.70
2019-01-26T03:49:04.843Z,1.70
2019-01-26T03:51:45.466Z,1.70
2019-01-26T03:54:27.954Z,1.70
2019-01-26T03:57:08.515Z,1.70
2019-01-26T03:59:49.094Z,1.70
2019-01-26T04:02:29.788Z,1.80
2019-01-26T04:05:11.583Z,1.80
2019-01-26T04:07:51.986Z,1.70
2019-01-26T04:10:33.204Z,1.80
2019-01-26T04:13:15.737Z,1.80
2019-01-26T04:15:56.901Z,1.80
2019-01-26T04:18:38.799Z,1.80
2019-01-26T04:21:19.599Z,1.80
2019-01-26T04:26:45.117Z,1.80
2019-01-26T04:29:13.543Z,1.80
2019-01-26T04:32:01.330Z,1.80
2019-01-26T04:40:08.695Z,1.80
2019-01-26T04:45:42.217Z,1.80
2019-01-26T04:48:23.070Z,1.80
2019-01-26T04:51:04.711Z,1.80
2019-01-26T04:53:33.166Z,1.80
2019-01-26T04:56:20.962Z,1.80
2019-01-26T04:59:09.736Z,1.80
2019-01-26T05:01:51.632Z,1.80
2019-01-26T05:04:33.044Z,1.80
2019-01-26T05:07:15.234Z,1.80
2019-01-26T05:09:43.676Z,1.80
2019-01-26T05:15:16.069Z,1.80
2019-01-26T05:26:30.767Z,1.80
2019-01-26T05:29:13.289Z,1.80
2019-01-26T05:31:53.530Z,1.90
2019-01-26T05:34:35.778Z,1.90
2019-01-26T05:37:17.652Z,1.90
2019-01-26T05:43:05.006Z,1.90
2019-01-26T05:51:20.604Z,1.90
2019-01-26T05:59:47.518Z,1.90
2019-01-26T06:02:28.458Z,1.90
2019-01-26T06:04:56.889Z,1.90
2019-01-26T06:07:25.375Z,1.90
2019-01-26T06:09:53.823Z,1.90
2019-01-26T06:12:42.337Z,1.90
2019-01-26T06:15:23.233Z,1.90
2019-01-26T06:18:04.364Z,1.90
2019-01-26T06:23:36.766Z,1.90
2019-01-26T06:28:49.225Z,1.90
2019-01-26T06:31:17.779Z,1.90
2019-01-26T06:34:06.247Z,1.90
2019-01-26T06:36:55.359Z,2.00
2019-01-26T06:39:39.192Z,2.00
2019-01-26T06:42:07.705Z,2.00
2019-01-26T06:44:55.472Z,2.00
2019-01-26T06:47:37.936Z,2.00
2019-01-26T06:53:23.599Z,2.00
2019-01-26T06:56:05.542Z,2.00
2019-01-26T07:01:34.777Z,2.00
2019-01-26T07:07:21.053Z,2.00
2019-01-26T07:10:02.041Z,2.00
2019-01-26T07:12:30.521Z,2.00
2019-01-26T07:18:14.392Z,2.00
2019-01-26T07:20:56.785Z,2.00
2019-01-26T07:23:25.397Z,2.00
2019-01-26T07:26:14.231Z,2.00
2019-01-26T07:34:43.049Z,2.00
2019-01-26T07:37:24.187Z,2.00
2019-01-26T07:39:52.587Z,2.10
2019-01-26T07:42:40.386Z,2.00
2019-01-26T07:45:28.205Z,2.10
2019-01-26T07:48:16.547Z,2.10
2019-01-26T07:50:52.770Z,2.10
2019-01-26T07:53:33.322Z,2.10
2019-01-26T08:01:49.180Z,2.10
2019-01-26T08:04:29.840Z,2.10
2019-01-26T08:06:58.269Z,2.20
2019-01-26T08:09:26.716Z,2.20
2019-01-26T08:11:55.183Z,2.20
2019-01-26T08:14:42.987Z,2.20
2019-01-26T08:17:30.836Z,2.20
2019-01-26T08:20:12.422Z,2.20
2019-01-26T08:22:41.837Z,2.20
2019-01-26T08:25:10.645Z,2.20
2019-01-26T08:27:58.607Z,2.30
2019-01-26T08:30:46.403Z,2.30
2019-01-26T08:33:27.934Z,2.30
2019-01-26T08:36:09.003Z,2.30
2019-01-26T08:38:37.505Z,2.30
2019-01-26T08:41:25.354Z,2.30
2019-01-26T08:44:13.146Z,2.30
2019-01-26T08:46:54.251Z,2.30
2019-01-26T09:04:33.361Z,2.40
2019-01-26T09:07:22.217Z,2.40
2019-01-26T09:09:50.702Z,2.40
2019-01-26T09:15:51.470Z,2.40
2019-01-26T09:18:38.742Z,2.40
2019-01-26T09:21:14.648Z,2.50
2019-01-26T09:26:41.091Z,2.40
2019-01-26T09:29:21.684Z,2.50
2019-01-26T09:31:50.158Z,2.50
2019-01-26T09:34:37.918Z,2.50
2019-01-26T09:40:16.588Z,2.60
2019-01-26T09:43:03.694Z,2.60
2019-01-26T09:45:50.159Z,2.60
2019-01-26T09:48:31.060Z,2.60
2019-01-26T09:53:45.489Z,2.60
2019-01-26T10:02:33.676Z,2.70
2019-01-26T10:05:21.462Z,2.80
2019-01-26T10:11:11.931Z,2.80
2019-01-26T10:34:05.938Z,3.30
2019-01-26T10:36:48.335Z,3.40
2019-01-26T10:39:29.362Z,3.40
2019-01-26T10:42:16.612Z,3.50
2019-01-26T10:44:59.273Z,3.60
2019-01-26T10:47:29.395Z,3.60
2019-01-26T10:56:21.694Z,3.80
2019-01-26T11:05:27.389Z,3.80
2019-01-26T11:10:57.711Z,3.90
2019-01-26T11:19:33.354Z,4.00
2019-01-26T11:33:59.734Z,4.00
2019-01-26T12:34:32.342Z,4.50
2019-01-26T12:40:03.789Z,4.50
2019-01-26T13:06:11.025Z,4.70
2019-01-26T13:33:10.550Z,5.00
2019-01-26T13:50:12.918Z,5.00
2019-01-26T13:58:52.263Z,5.00
2019-01-26T14:33:37.898Z,4.80
2019-01-26T14:48:57.681Z,4.70
2019-01-26T14:57:19.037Z,4.70
2019-01-26T15:00:27.595Z,4.60
2019-01-26T15:44:03.610Z,4.40
2019-01-26T15:52:51.110Z,4.40
2019-01-26T15:55:32.192Z,4.40
2019-01-26T15:58:13.908Z,4.30
2019-01-26T16:03:50.770Z,4.30
2019-01-26T16:06:33.146Z,4.30
2019-01-26T16:12:00.265Z,4.30
2019-01-26T16:14:29.077Z,4.20
2019-01-26T16:17:17.080Z,4.20
2019-01-26T16:28:44.682Z,4.10
2019-01-26T16:37:16.030Z,4.10
2019-01-26T16:42:43.869Z,4.10
2019-01-26T16:45:24.963Z,4.00
2019-01-26T16:48:07.599Z,4.00
2019-01-26T16:50:48.567Z,4.00
2019-01-26T17:13:45.421Z,3.90
2019-01-26T17:16:33.492Z,3.90
2019-01-26T17:22:05.824Z,3.80
2019-01-26T17:24:46.665Z,3.80
2019-01-26T17:33:09.459Z,3.80
2019-01-26T17:35:50.722Z,3.80
2019-01-26T17:38:30.512Z,3.70
2019-01-26T17:41:12.121Z,3.70
2019-01-26T17:43:53.393Z,3.70
2019-01-26T17:46:33.817Z,3.70
2019-01-26T17:49:15.082Z,3.70
2019-01-26T17:51:56.291Z,3.70
2019-01-26T17:54:37.103Z,3.70
2019-01-26T17:57:18.242Z,3.70
2019-01-26T17:59:58.885Z,3.70
2019-01-26T18:02:39.666Z,3.70
2019-01-26T18:05:20.713Z,3.60
2019-01-26T18:08:01.287Z,3.60
2019-01-26T18:13:39.866Z,3.60
2019-01-26T18:16:22.032Z,3.60
2019-01-26T18:21:58.111Z,3.60
2019-01-26T18:24:39.058Z,3.60
2019-01-26T18:30:16.200Z,3.60
2019-01-26T18:32:55.947Z,3.60
2019-01-26T18:38:41.999Z,3.60
2019-01-26T18:41:17.379Z,3.60
2019-01-26T18:46:41.104Z,3.50
2019-01-26T18:49:19.144Z,3.50
2019-01-26T18:54:57.192Z,3.50
2019-01-26T18:57:38.228Z,3.50
2019-01-26T19:06:08.004Z,3.50
2019-01-26T19:11:51.872Z,3.50
2019-01-26T19:17:32.216Z,3.50
2019-01-26T19:37:35.704Z,3.40
2019-01-26T19:48:53.141Z,3.40
2019-01-26T19:51:40.943Z,3.40
2019-01-26T20:05:51.601Z,3.30
2019-01-26T20:14:20.152Z,3.30
2019-01-26T20:17:00.850Z,3.30
2019-01-26T20:19:41.961Z,3.30
2019-01-26T20:22:23.052Z,3.30
2019-01-26T20:25:03.916Z,3.30
2019-01-26T20:27:46.193Z,3.30
2019-01-26T20:30:35.698Z,3.30
2019-01-26T20:36:21.290Z,3.20
2019-01-26T20:39:01.851Z,3.20
2019-01-26T20:41:44.221Z,3.20
2019-01-26T20:44:27.223Z,3.20
2019-01-26T20:47:08.821Z,3.20
2019-01-26T20:55:29.286Z,3.20
2019-01-26T20:58:10.275Z,3.20
2019-01-26T21:00:51.196Z,3.20
2019-01-26T21:12:10.253Z,3.20
2019-01-26T21:20:34.165Z,3.10
2019-01-26T21:29:17.434Z,3.10
2019-01-26T21:31:59.881Z,3.20
2019-01-26T21:37:32.176Z,3.10
2019-01-26T21:40:15.149Z,3.10
2019-01-26T21:42:58.283Z,3.10
2019-01-26T21:48:30.186Z,3.10
2019-01-26T21:53:59.162Z,3.10
2019-01-26T21:56:40.998Z,3.10
2019-01-26T22:04:56.837Z,3.10
2019-01-26T22:07:44.911Z,3.10
2019-01-26T22:16:18.777Z,3.10
2019-01-26T22:19:00.558Z,3.10
2019-01-26T22:33:16.581Z,3.10
2019-01-26T22:35:57.187Z,3.10
2019-01-26T22:38:38.700Z,3.10
2019-01-26T22:41:18.594Z,3.10
2019-01-26T22:43:59.391Z,3.10
2019-01-26T22:49:24.449Z,3.10
2019-01-26T22:54:52.681Z,3.10
2019-01-26T22:57:33.530Z,3.10
2019-01-26T23:00:14.373Z,3.10
2019-01-26T23:11:29.379Z,3.10
2019-01-26T23:14:11.116Z,3.10
2019-01-26T23:22:29.664Z,3.10
2019-01-26T23:25:09.975Z,3.10
2019-01-26T23:27:50.636Z,3.10
2019-01-26T23:30:32.352Z,3.10
2019-01-26T23:33:13.269Z,3.10
2019-01-26T23:35:54.670Z,3.10
2019-01-26T23:38:35.543Z,3.10
2019-01-26T23:41:17.243Z,3.10
2019-01-26T23:46:54.051Z,3.10
2019-01-26T23:49:34.718Z,3.10
2019-01-26T23:52:17.017Z,3.10
